Terminal Aerodrome Forecast
Issued by NWS

Home | Current Version | Previous Version | Text Only | Print | Product List | Glossary On
Versions: 1 2 3 4 5 6 7 8 9 10 11 12 13 14 15
737
FTUS45 KVEF 201124
TAFDAG
TAF
KDAG 201124Z 2012/2112 27010KT P6SM FEW150 FEW250
     FM210100 26017KT P6SM FEW150 FEW250
     FM210800 25012KT P6SM FEW150=

USA.gov is the U.S. government's official web portal to all federal, state and local government web resources and services.